Leesburg, VA (20175)

2:24 AM EST on January 30, 2015 (GMT -0500)
outside leesburg | Change Station
CLOSE
Current Station
Personal Weather Station
Location: Leesburg, VA
Elevation: 463 ft
Nearby Weather Stations
Active Advisory: Wind Advisory, Special Statement

Elev 463 ft 39.08 °N, 77.61 °W | Updated 9 minutes ago

Overcast
Overcast
39.0 °F
Feels Like 36 °F
N
4.7
Wind Variable Wind from WNW

Today
High -- | Low -- °F
--% Chance of Precip.
Yesterday
High -- | Low -- °F
Precip. -- in
7:18 AM 5:28 PM
Waxing Gibbous, 80% visible
Pressure 29.92 in
Visibility 10.0 miles
Clouds Overcast 5500 ft
Windchill 36 °F
Dew Point 31 °F
Humidity 74%
Rainfall 0.00 in
Snow Depth Not available.
UV 0 out of 12
Pollen .30 out of 12
Air Quality Not available.
Flu Activity Not available.
METAR KJYO 300715Z AUTO 30009G16KT 10SM OVC055 04/01 A2992 RMK AO2

More Conditions Fewer Conditions

Pressure 29.92 in
Visibility 10.0 miles
Clouds Overcast 5500 ft
Windchill 36 °F
Dew Point 31 °F
Humidity 74%
Rainfall 0.00 in
Snow Depth Not available.
UV 0 out of 12
Pollen .30 out of 12
Air Quality Not available.
Flu Activity Not available.
METAR KJYO 300715Z AUTO 30009G16KT 10SM OVC055 04/01 A2992 RMK AO2

More Conditions Fewer Conditions

10-Day Weather Forecast

Almanac

Astronomy

Jan. 30, 2015 Rise Set
Actual Time
Civil Twilight
Nautical Twilight
Astronomical Twilight
Moon
Length of Visible Light
Length of Day
Tomorrow will be .
, % of the Moon is Illuminated

Today's Extremes

State Highs State Lows

Community

WunderPhotos

Upload Photos

1,791,726 photos uploaded!

WunderBlogs® & News

Nearby

Air Quality

  Air Quality AQ Index Pollutant
Not available.

Snow Depth

Station Depth Elevation

Earthquake Activity

City Distance Mag. Time & Date
Minimum magnitude displayed is 2.5.

Coastal Water Temperatures

Place Temperature

Nearby Weather Stations